createdAt,value
2023-04-12T00:01:13.544Z,92425.03
2023-04-12T00:03:41.333Z,92422.78
2023-04-12T00:06:10.576Z,92418.16
2023-04-12T00:08:37.897Z,92410.91
2023-04-12T00:11:05.790Z,92418.84
2023-04-12T00:13:33.269Z,92419.81
2023-04-12T00:16:00.753Z,92425.37
2023-04-12T00:18:28.473Z,92414.22
2023-04-12T00:20:56.024Z,92416.59
2023-04-12T00:23:23.476Z,92404.31
2023-04-12T00:25:51.343Z,92398.91
2023-04-12T00:28:19.023Z,92397.16
2023-04-12T00:30:46.478Z,92398.84
2023-04-12T00:33:14.127Z,92398.50
2023-04-12T00:35:41.523Z,92392.97
2023-04-12T00:38:10.949Z,92390.38
2023-04-12T00:40:44.924Z,92396.91
2023-04-12T00:43:15.722Z,92397.22
2023-04-12T00:45:44.568Z,92397.25
2023-04-12T00:48:12.576Z,92389.25
2023-04-12T00:50:45.043Z,92391.56
2023-04-12T00:53:14.256Z,92399.16
2023-04-12T00:55:44.929Z,92400.53
2023-04-12T00:58:14.388Z,92398.28
2023-04-12T01:00:42.305Z,92393.44
2023-04-12T01:03:09.860Z,92401.44
2023-04-12T01:05:50.695Z,92389.25
2023-04-12T01:08:28.484Z,92399.16
2023-04-12T01:11:06.417Z,92394.28
2023-04-12T01:13:41.206Z,92396.84
2023-04-12T01:16:26.769Z,92392.03
2023-04-12T01:18:59.967Z,92387.47
2023-04-12T01:21:39.662Z,92385.47
2023-04-12T01:24:16.431Z,92375.19
2023-04-12T01:26:47.092Z,92380.53
2023-04-12T01:29:21.333Z,92381.66
2023-04-12T01:31:56.861Z,92375.19
2023-04-12T01:34:27.526Z,92367.97
2023-04-12T01:36:57.338Z,92367.81
2023-04-12T01:39:24.717Z,92365.69
2023-04-12T01:41:52.139Z,92361.50
2023-04-12T01:44:19.990Z,92360.59
2023-04-12T01:46:48.749Z,92361.50
2023-04-12T01:49:17.915Z,92363.59
2023-04-12T01:51:58.553Z,92360.25
2023-04-12T01:54:33.327Z,92360.50
2023-04-12T01:57:03.926Z,92365.91
2023-04-12T01:59:45.688Z,92359.72
2023-04-12T02:02:13.979Z,92367.31
2023-04-12T02:04:43.186Z,92376.72
2023-04-12T02:07:11.620Z,92357.63
2023-04-12T02:09:39.756Z,92362.97
2023-04-12T02:12:08.180Z,92366.31
2023-04-12T02:14:37.098Z,92358.38
2023-04-12T02:17:05.584Z,92350.66
2023-04-12T02:19:33.183Z,92347.16
2023-04-12T02:22:01.275Z,92340.25
2023-04-12T02:24:29.921Z,92350.47
2023-04-12T02:26:59.268Z,92342.66
2023-04-12T02:29:27.685Z,92344.56
2023-04-12T02:31:55.261Z,92345.22
2023-04-12T02:34:23.179Z,92351.34
2023-04-12T02:36:51.335Z,92349.00
2023-04-12T02:39:18.942Z,92351.28
2023-04-12T02:41:46.912Z,92351.47
2023-04-12T02:44:15.221Z,92346.84
2023-04-12T02:46:44.007Z,92348.56
2023-04-12T02:49:11.829Z,92350.13
2023-04-12T02:51:40.543Z,92349.47
2023-04-12T02:54:08.046Z,92350.13
2023-04-12T02:56:37.164Z,92346.81
2023-04-12T02:59:07.007Z,92350.78
2023-04-12T03:01:35.062Z,92343.38
2023-04-12T03:04:03.690Z,92347.78
2023-04-12T03:06:32.213Z,92347.53
2023-04-12T03:09:00.570Z,92351.53
2023-04-12T03:11:27.856Z,92348.19
2023-04-12T03:13:56.229Z,92355.72
2023-04-12T03:16:30.173Z,92346.06
2023-04-12T03:18:59.930Z,92352.25
2023-04-12T03:21:28.501Z,92351.75
2023-04-12T03:23:56.551Z,92341.44
2023-04-12T03:26:26.742Z,92344.91
2023-04-12T03:29:01.529Z,92344.25
2023-04-12T03:31:31.593Z,92348.31
2023-04-12T03:34:02.305Z,92342.56
2023-04-12T03:36:31.433Z,92340.56
2023-04-12T03:38:59.690Z,92341.59
2023-04-12T03:41:28.733Z,92340.09
2023-04-12T03:43:57.184Z,92347.31
2023-04-12T03:46:25.108Z,92345.09
2023-04-12T03:48:53.077Z,92342.09
2023-04-12T03:51:22.443Z,92349.00
2023-04-12T03:53:49.874Z,92350.22
2023-04-12T03:56:17.206Z,92344.59
2023-04-12T03:58:45.136Z,92360.75
2023-04-12T04:01:13.919Z,92354.00
2023-04-12T04:03:42.602Z,92369.69
2023-04-12T04:06:11.562Z,92354.66
2023-04-12T04:08:39.675Z,92354.66
2023-04-12T04:11:09.014Z,92348.28
2023-04-12T04:13:37.273Z,92354.00
2023-04-12T04:16:07.772Z,92344.81
2023-04-12T04:18:36.371Z,92353.47
2023-04-12T04:21:05.219Z,92334.28
2023-04-12T04:23:38.852Z,92353.88
2023-04-12T04:26:11.365Z,92350.13
2023-04-12T04:28:45.403Z,92352.25
2023-04-12T04:31:17.053Z,92357.56
2023-04-12T04:33:47.435Z,92352.50
2023-04-12T04:36:36.099Z,92356.81
2023-04-12T04:39:08.225Z,92368.31
2023-04-12T04:41:39.742Z,92365.16
2023-04-12T04:44:09.700Z,92367.59
2023-04-12T04:46:38.274Z,92365.38
2023-04-12T04:49:06.592Z,92389.31
2023-04-12T04:51:33.955Z,92364.37
2023-04-12T04:54:03.584Z,92382.81
2023-04-12T04:56:32.951Z,92368.72
2023-04-12T04:59:02.828Z,92370.91
2023-04-12T05:01:32.266Z,92365.03
2023-04-12T05:04:01.838Z,92376.78
2023-04-12T05:06:29.839Z,92372.53
2023-04-12T05:08:58.463Z,92386.97
2023-04-12T05:11:26.722Z,92390.53
2023-04-12T05:13:54.710Z,92385.47
2023-04-12T05:16:22.552Z,92386.75
2023-04-12T05:18:49.951Z,92391.12
2023-04-12T05:21:18.967Z,92382.19
2023-04-12T05:23:47.614Z,92379.81
2023-04-12T05:26:14.987Z,92382.13
2023-04-12T05:28:43.137Z,92379.13
2023-04-12T05:31:14.791Z,92387.16
2023-04-12T05:33:42.570Z,92398.34
2023-04-12T05:36:11.062Z,92416.72
2023-04-12T05:38:39.207Z,92383.47
2023-04-12T05:41:08.339Z,92397.88
2023-04-12T05:43:37.959Z,92398.91
2023-04-12T05:46:08.187Z,92406.31
2023-04-12T05:48:36.000Z,92404.97
2023-04-12T05:51:05.385Z,92408.47
2023-04-12T05:53:34.752Z,92417.50
2023-04-12T05:56:03.285Z,92413.62
2023-04-12T05:58:30.876Z,92423.88
2023-04-12T06:00:59.271Z,92424.50
2023-04-12T06:03:30.529Z,92428.19
2023-04-12T06:05:58.254Z,92425.63
2023-04-12T06:08:25.706Z,92419.78
2023-04-12T06:10:53.390Z,92421.47
2023-04-12T06:13:21.591Z,92430.19
2023-04-12T06:15:49.300Z,92436.91
2023-04-12T06:18:17.263Z,92424.94
2023-04-12T06:20:46.543Z,92433.06
2023-04-12T06:23:14.157Z,92435.13
2023-04-12T06:25:42.128Z,92437.12
2023-04-12T06:28:10.147Z,92434.75
2023-04-12T06:30:41.121Z,92441.66
2023-04-12T06:33:09.290Z,92451.75
2023-04-12T06:35:36.710Z,92450.00
2023-04-12T06:38:04.143Z,92469.75
2023-04-12T06:40:32.571Z,92466.12
2023-04-12T06:43:00.592Z,92478.97
2023-04-12T06:45:28.392Z,92477.06
2023-04-12T06:47:57.280Z,92480.41
2023-04-12T06:50:26.769Z,92478.50
2023-04-12T06:52:54.382Z,92484.53
2023-04-12T06:55:22.072Z,92485.16
2023-04-12T06:57:52.248Z,92472.25
2023-04-12T07:00:19.811Z,92477.56
2023-04-12T07:02:47.579Z,92458.16
2023-04-12T07:05:15.132Z,92458.94
2023-04-12T07:07:42.460Z,92466.19
2023-04-12T07:10:10.886Z,92467.00
2023-04-12T07:12:38.282Z,92458.50
2023-04-12T07:15:06.108Z,92466.50
2023-04-12T07:17:34.037Z,92464.31
2023-04-12T07:20:01.667Z,92460.91
2023-04-12T07:22:30.640Z,92451.03
2023-04-12T07:24:58.238Z,92448.34
2023-04-12T07:27:25.463Z,92448.00
2023-04-12T07:29:56.227Z,92442.22
2023-04-12T07:32:25.150Z,92440.53
2023-04-12T07:34:53.454Z,92440.34
2023-04-12T07:37:21.308Z,92425.31
2023-04-12T07:39:49.119Z,92433.09
2023-04-12T07:42:16.977Z,92420.84
2023-04-12T07:44:44.362Z,92416.56
2023-04-12T07:47:15.853Z,92429.72
2023-04-12T07:49:43.273Z,92435.06
2023-04-12T07:52:11.947Z,92431.28
2023-04-12T07:54:40.391Z,92424.59
2023-04-12T07:57:09.106Z,92419.44
2023-04-12T07:59:36.872Z,92422.19
2023-04-12T08:02:06.390Z,92413.34
2023-04-12T08:04:34.190Z,92423.94
2023-04-12T08:07:01.678Z,92415.06
2023-04-12T08:09:29.030Z,92431.50
2023-04-12T08:11:58.404Z,92433.63
2023-04-12T08:14:26.512Z,92427.94
2023-04-12T08:16:53.851Z,92423.16
2023-04-12T08:19:22.531Z,92416.34
2023-04-12T08:21:50.345Z,92422.19
2023-04-12T08:24:18.559Z,92412.00
2023-04-12T08:26:46.968Z,92404.91
2023-04-12T08:29:14.888Z,92408.28
2023-04-12T08:31:42.596Z,92409.13
2023-04-12T08:34:10.324Z,92401.47
2023-04-12T08:36:38.686Z,92412.53
2023-04-12T08:39:06.271Z,92411.19
2023-04-12T08:41:37.031Z,92415.09
2023-04-12T08:44:06.155Z,92406.06
2023-04-12T08:46:37.651Z,92395.72
2023-04-12T08:49:05.983Z,92406.97
2023-04-12T08:51:37.238Z,92408.34
2023-04-12T08:54:05.554Z,92390.78
2023-04-12T08:56:33.545Z,92392.63
2023-04-12T08:59:02.705Z,92399.97
2023-04-12T09:01:30.655Z,92394.44
2023-04-12T09:03:59.147Z,92386.81
2023-04-12T09:06:27.608Z,92384.72
2023-04-12T09:08:57.294Z,92378.87
2023-04-12T09:11:26.945Z,92372.13
2023-04-12T09:13:58.991Z,92396.97
2023-04-12T09:16:40.588Z,92368.38
2023-04-12T09:19:09.718Z,92362.53
2023-04-12T09:21:51.631Z,92364.00
2023-04-12T09:24:19.748Z,92366.59
2023-04-12T09:26:47.561Z,92350.66
2023-04-12T09:29:28.399Z,92347.69
2023-04-12T09:32:10.189Z,92348.47
2023-04-12T09:34:37.927Z,92362.41
2023-04-12T09:37:24.534Z,92354.94
2023-04-12T09:40:06.946Z,92356.53
2023-04-12T09:42:37.132Z,92336.75
2023-04-12T09:45:20.506Z,92341.13
2023-04-12T09:47:49.806Z,92346.63
2023-04-12T09:50:25.267Z,92344.81
2023-04-12T09:52:54.340Z,92364.41
2023-04-12T09:55:24.960Z,92357.69
2023-04-12T09:57:54.586Z,92337.12
2023-04-12T10:00:27.525Z,92346.13
2023-04-12T10:02:57.532Z,92341.28
2023-04-12T10:05:28.147Z,92342.00
2023-04-12T10:07:58.803Z,92329.97
2023-04-12T10:10:29.769Z,92333.84
2023-04-12T10:12:58.710Z,92319.28
2023-04-12T10:15:27.861Z,92336.88
2023-04-12T10:17:57.700Z,92323.19
2023-04-12T10:20:29.261Z,92330.75
2023-04-12T10:23:01.965Z,92330.38
2023-04-12T10:25:31.291Z,92320.69
2023-04-12T10:28:22.262Z,92325.16
2023-04-12T10:30:53.478Z,92305.25
2023-04-12T10:33:26.904Z,92312.75
2023-04-12T10:36:08.806Z,92319.31
2023-04-12T10:39:10.283Z,92310.09
2023-04-12T10:41:38.192Z,92286.81
2023-04-12T10:44:29.115Z,92311.44
2023-04-12T10:46:56.880Z,92317.03
2023-04-12T10:49:25.366Z,92306.50
2023-04-12T10:52:02.748Z,92299.25
2023-04-12T10:54:37.376Z,92306.09
2023-04-12T10:57:05.718Z,92301.34
2023-04-12T10:59:57.613Z,92311.56
2023-04-12T11:02:25.600Z,92288.41
2023-04-12T11:05:11.804Z,92283.47
2023-04-12T11:07:46.326Z,92274.19
2023-04-12T11:10:21.986Z,92286.16
2023-04-12T11:12:57.541Z,92261.47
2023-04-12T11:15:30.691Z,92271.87
2023-04-12T11:18:01.379Z,92270.28
2023-04-12T11:20:30.504Z,92240.41
2023-04-12T11:23:01.255Z,92251.31
2023-04-12T11:25:29.317Z,92250.50
2023-04-12T11:27:57.593Z,92262.78
2023-04-12T11:30:26.395Z,92256.72
2023-04-12T11:32:55.680Z,92264.91
2023-04-12T11:35:27.898Z,92264.22
2023-04-12T11:37:59.281Z,92246.53
2023-04-12T11:40:27.780Z,92266.97
2023-04-12T11:42:57.905Z,92261.62
2023-04-12T11:45:27.064Z,92274.13
2023-04-12T11:47:58.363Z,92258.72
2023-04-12T11:50:31.312Z,92277.19
2023-04-12T11:53:13.461Z,92276.91
2023-04-12T11:55:41.739Z,92273.69
2023-04-12T11:58:09.015Z,92290.00
2023-04-12T12:00:37.000Z,92275.19
2023-04-12T12:03:08.252Z,92266.44
2023-04-12T12:05:41.465Z,92274.78
2023-04-12T12:08:09.781Z,92269.22
2023-04-12T12:10:51.915Z,92287.34
2023-04-12T12:13:23.540Z,92296.81
2023-04-12T12:15:54.099Z,92269.03
2023-04-12T12:18:26.662Z,92277.00
2023-04-12T12:20:55.949Z,92293.69
2023-04-12T12:23:33.560Z,92280.09
2023-04-12T12:26:17.789Z,92284.22
2023-04-12T12:28:51.019Z,92294.97
2023-04-12T12:31:21.574Z,92273.13
2023-04-12T12:33:49.865Z,92283.72
2023-04-12T12:36:23.036Z,92232.41
2023-04-12T12:38:53.451Z,92272.25
2023-04-12T12:41:25.207Z,92298.28
2023-04-12T12:43:53.249Z,92282.78
2023-04-12T12:46:21.190Z,92272.34
2023-04-12T12:48:49.025Z,92279.37
2023-04-12T12:51:20.471Z,92258.63
2023-04-12T12:53:48.530Z,92304.72
2023-04-12T12:56:16.182Z,92288.88
2023-04-12T12:58:43.996Z,92300.66
2023-04-12T13:01:11.496Z,92293.75
2023-04-12T13:03:39.074Z,92298.22
2023-04-12T13:06:07.748Z,92318.13
2023-04-12T13:08:37.314Z,92289.53
2023-04-12T13:11:05.808Z,92286.22
2023-04-12T13:13:33.505Z,92296.16
2023-04-12T13:16:00.987Z,92293.19
2023-04-12T13:18:28.378Z,92291.56
2023-04-12T13:20:56.851Z,92307.00
2023-04-12T13:23:24.189Z,92293.56
2023-04-12T13:25:51.563Z,92298.09
2023-04-12T13:28:19.640Z,92289.84
2023-04-12T13:30:48.901Z,92303.72
2023-04-12T13:33:20.124Z,92300.25
2023-04-12T13:35:49.649Z,92304.00
2023-04-12T13:38:17.122Z,92306.06
2023-04-12T13:40:44.474Z,92305.28
2023-04-12T13:43:12.093Z,92291.78
2023-04-12T13:45:39.478Z,92307.97
2023-04-12T13:48:06.892Z,92311.09
2023-04-12T13:50:34.629Z,92292.69
2023-04-12T13:53:01.944Z,92297.81
2023-04-12T13:55:29.282Z,92297.59
2023-04-12T13:57:56.887Z,92311.34
2023-04-12T14:00:24.251Z,92283.66
2023-04-12T14:02:52.141Z,92296.00
2023-04-12T14:05:19.915Z,92290.56
2023-04-12T14:07:50.011Z,92291.78
2023-04-12T14:10:17.704Z,92297.25
2023-04-12T14:12:47.589Z,92304.25
2023-04-12T14:15:14.967Z,92302.31
2023-04-12T14:17:42.897Z,92315.31
2023-04-12T14:20:13.570Z,92305.63
2023-04-12T14:22:41.036Z,92306.69
2023-04-12T14:25:10.387Z,92306.53
2023-04-12T14:27:38.173Z,92300.28
2023-04-12T14:30:07.419Z,92301.63
2023-04-12T14:32:35.226Z,92312.06
2023-04-12T14:35:04.386Z,92290.63
2023-04-12T14:37:33.286Z,92324.03
2023-04-12T14:40:01.289Z,92313.47
2023-04-12T14:42:28.648Z,92315.22
2023-04-12T14:44:55.998Z,92309.78
2023-04-12T14:47:23.763Z,92331.00
2023-04-12T14:49:51.357Z,92351.50
2023-04-12T14:52:19.052Z,92319.16
2023-04-12T14:54:46.971Z,92331.88
2023-04-12T14:57:15.102Z,92336.91
2023-04-12T14:59:42.542Z,92333.06
2023-04-12T15:02:13.234Z,92353.53
2023-04-12T15:04:41.154Z,92363.50
2023-04-12T15:07:08.548Z,92365.88
2023-04-12T15:09:36.323Z,92378.34
2023-04-12T15:12:03.838Z,92362.09
2023-04-12T15:14:31.642Z,92369.69
2023-04-12T15:16:59.342Z,92364.63
2023-04-12T15:19:27.394Z,92374.19
2023-04-12T15:21:55.502Z,92387.00
2023-04-12T15:24:24.571Z,92379.56
2023-04-12T15:26:53.210Z,92376.19
2023-04-12T15:29:22.812Z,92380.38
2023-04-12T15:31:51.015Z,92390.03
2023-04-12T15:34:18.598Z,92374.97
2023-04-12T15:36:46.204Z,92382.25
2023-04-12T15:39:15.192Z,92380.97
2023-04-12T15:41:43.573Z,92383.22
2023-04-12T15:44:14.880Z,92385.13
2023-04-12T15:46:42.923Z,92382.47
2023-04-12T15:49:11.262Z,92384.72
2023-04-12T15:51:38.889Z,92385.94
2023-04-12T15:54:06.871Z,92388.94
2023-04-12T15:56:35.276Z,92382.31
2023-04-12T15:59:03.154Z,92394.03
2023-04-12T16:01:30.938Z,92391.75
2023-04-12T16:03:58.923Z,92384.50
2023-04-12T16:06:27.392Z,92389.25
2023-04-12T16:08:55.395Z,92393.16
2023-04-12T16:11:24.207Z,92394.31
2023-04-12T16:13:52.601Z,92397.13
2023-04-12T16:16:23.000Z,92406.91
2023-04-12T16:18:51.717Z,92402.94
2023-04-12T16:21:20.922Z,92396.09
2023-04-12T16:23:50.598Z,92393.78
2023-04-12T16:26:22.087Z,92392.41
2023-04-12T16:28:55.645Z,92403.91
2023-04-12T16:31:25.622Z,92407.53
2023-04-12T16:33:54.247Z,92406.44
2023-04-12T16:36:24.296Z,92405.62
2023-04-12T16:38:55.273Z,92415.72
2023-04-12T16:41:23.333Z,92414.06
2023-04-12T16:43:53.922Z,92425.97
2023-04-12T16:46:21.831Z,92423.38
2023-04-12T16:48:49.430Z,92430.94
2023-04-12T16:51:17.232Z,92430.72
2023-04-12T16:53:44.932Z,92433.81
2023-04-12T16:56:12.732Z,92439.94
2023-04-12T16:58:41.074Z,92440.25
2023-04-12T17:01:09.958Z,92446.56
2023-04-12T17:03:41.988Z,92458.38
2023-04-12T17:06:10.310Z,92450.75
2023-04-12T17:08:38.116Z,92452.34
2023-04-12T17:11:06.265Z,92471.72
2023-04-12T17:13:34.816Z,92475.66
2023-04-12T17:16:04.208Z,92472.53
2023-04-12T17:18:32.112Z,92466.47
2023-04-12T17:21:00.893Z,92469.63
2023-04-12T17:23:28.733Z,92481.16
2023-04-12T17:25:57.018Z,92485.31
2023-04-12T17:28:25.208Z,92479.78
2023-04-12T17:30:53.828Z,92487.16
2023-04-12T17:33:21.587Z,92496.31
2023-04-12T17:35:49.554Z,92507.31
2023-04-12T17:38:16.904Z,92515.69
2023-04-12T17:40:44.205Z,92524.87
2023-04-12T17:43:12.332Z,92528.00
2023-04-12T17:45:40.293Z,92526.59
2023-04-12T17:48:11.216Z,92527.97
2023-04-12T17:50:38.981Z,92525.03
2023-04-12T17:53:06.267Z,92531.87
2023-04-12T17:55:33.959Z,92533.19
2023-04-12T17:58:05.787Z,92534.75
2023-04-12T18:00:33.685Z,92526.03
2023-04-12T18:03:01.520Z,92536.22
2023-04-12T18:05:29.094Z,92542.53
2023-04-12T18:07:57.227Z,92545.69
2023-04-12T18:10:27.434Z,92553.25
2023-04-12T18:12:55.349Z,92552.59
2023-04-12T18:15:22.854Z,92564.09
2023-04-12T18:17:50.716Z,92567.41
2023-04-12T18:20:18.509Z,92569.84
2023-04-12T18:22:46.141Z,92569.19
2023-04-12T18:25:13.920Z,92567.31
2023-04-12T18:27:41.523Z,92570.59
2023-04-12T18:30:09.598Z,92566.22
2023-04-12T18:32:37.641Z,92567.94
2023-04-12T18:35:06.273Z,92570.53
2023-04-12T18:37:33.925Z,92566.97
2023-04-12T18:40:01.757Z,92572.03
2023-04-12T18:42:29.293Z,92576.44
2023-04-12T18:44:58.365Z,92576.56
2023-04-12T18:47:29.214Z,92574.84
2023-04-12T18:49:56.651Z,92580.44
2023-04-12T18:52:24.051Z,92580.72
2023-04-12T18:54:51.907Z,92581.12
2023-04-12T18:57:19.466Z,92579.69
2023-04-12T18:59:48.086Z,92571.91
2023-04-12T19:02:16.025Z,92575.03
2023-04-12T19:04:43.460Z,92578.81
2023-04-12T19:07:11.020Z,92583.66
2023-04-12T19:09:38.793Z,92588.22
2023-04-12T19:12:06.332Z,92589.56
2023-04-12T19:14:33.770Z,92579.78
2023-04-12T19:17:01.476Z,92588.91
2023-04-12T19:19:29.033Z,92585.91
2023-04-12T19:21:56.467Z,92591.66
2023-04-12T19:24:24.688Z,92585.06
2023-04-12T19:26:51.989Z,92588.91
2023-04-12T19:29:20.000Z,92588.53
2023-04-12T19:31:49.247Z,92584.59
2023-04-12T19:34:18.088Z,92588.97
2023-04-12T19:36:46.011Z,92593.44
2023-04-12T19:39:13.676Z,92606.94
2023-04-12T19:41:41.175Z,92602.72
2023-04-12T19:44:08.653Z,92597.56
2023-04-12T19:46:39.041Z,92594.00
2023-04-12T19:49:06.506Z,92583.50
2023-04-12T19:51:34.843Z,92584.63
2023-04-12T19:54:03.115Z,92585.34
2023-04-12T19:56:31.727Z,92589.75
2023-04-12T19:59:00.389Z,92581.88
2023-04-12T20:01:28.495Z,92588.69
2023-04-12T20:03:56.282Z,92593.41
2023-04-12T20:06:23.712Z,92586.22
2023-04-12T20:08:51.421Z,92585.06
2023-04-12T20:11:19.208Z,92590.72
2023-04-12T20:13:46.764Z,92589.69
2023-04-12T20:16:14.251Z,92592.47
2023-04-12T20:18:42.247Z,92588.53
2023-04-12T20:21:10.500Z,92587.06
2023-04-12T20:23:38.086Z,92583.84
2023-04-12T20:26:05.801Z,92587.06
2023-04-12T20:28:33.243Z,92584.22
2023-04-12T20:31:00.970Z,92579.50
2023-04-12T20:33:29.548Z,92586.88
2023-04-12T20:35:56.923Z,92592.41
2023-04-12T20:38:24.365Z,92592.87
2023-04-12T20:40:52.468Z,92600.00
2023-04-12T20:43:19.904Z,92601.31
2023-04-12T20:45:48.470Z,92598.81
2023-04-12T20:48:16.885Z,92598.47
2023-04-12T20:50:45.045Z,92613.75
2023-04-12T20:53:17.727Z,92613.50
2023-04-12T20:55:45.914Z,92616.94
2023-04-12T20:58:13.337Z,92616.00
2023-04-12T21:00:40.921Z,92620.16
2023-04-12T21:03:08.853Z,92622.16
2023-04-12T21:05:36.280Z,92619.34
2023-04-12T21:08:03.617Z,92616.53
2023-04-12T21:10:31.411Z,92624.59
2023-04-12T21:13:02.061Z,92616.50
2023-04-12T21:15:30.332Z,92620.44
2023-04-12T21:17:58.034Z,92621.72
2023-04-12T21:20:25.626Z,92628.34
2023-04-12T21:22:53.707Z,92627.62
2023-04-12T21:25:21.661Z,92629.44
2023-04-12T21:27:49.951Z,92623.75
2023-04-12T21:30:17.505Z,92625.94
2023-04-12T21:32:45.212Z,92613.94
2023-04-12T21:35:16.471Z,92619.66
2023-04-12T21:37:44.138Z,92607.34
2023-04-12T21:40:12.828Z,92614.22
2023-04-12T21:42:41.366Z,92610.50
2023-04-12T21:45:13.811Z,92617.88
2023-04-12T21:47:42.627Z,92611.22
2023-04-12T21:50:10.903Z,92608.47
2023-04-12T21:52:40.285Z,92609.94
2023-04-12T21:55:08.375Z,92610.84
2023-04-12T21:57:36.082Z,92614.31
2023-04-12T22:00:06.507Z,92616.47
2023-04-12T22:02:39.259Z,92608.25
2023-04-12T22:05:07.767Z,92610.47
2023-04-12T22:07:35.439Z,92615.44
2023-04-12T22:10:02.783Z,92626.25
2023-04-12T22:12:30.523Z,92616.78
2023-04-12T22:14:58.682Z,92616.28
2023-04-12T22:17:26.485Z,92612.56
2023-04-12T22:19:56.783Z,92619.62
2023-04-12T22:22:25.238Z,92605.19
2023-04-12T22:24:53.995Z,92606.97
2023-04-12T22:27:21.570Z,92612.50
2023-04-12T22:29:50.174Z,92613.41
2023-04-12T22:32:17.570Z,92614.03
2023-04-12T22:34:45.838Z,92610.47
2023-04-12T22:37:14.920Z,92614.81
2023-04-12T22:39:42.976Z,92607.03
2023-04-12T22:42:10.919Z,92614.69
2023-04-12T22:44:38.590Z,92607.72
2023-04-12T22:47:09.002Z,92614.25
2023-04-12T22:49:46.560Z,92616.28
2023-04-12T22:52:13.895Z,92619.12
2023-04-12T22:54:41.508Z,92614.09
2023-04-12T22:57:08.863Z,92618.56
2023-04-12T22:59:36.325Z,92616.41
2023-04-12T23:02:04.197Z,92610.31
2023-04-12T23:04:31.634Z,92615.56
2023-04-12T23:06:59.018Z,92624.25
2023-04-12T23:09:27.449Z,92628.47
2023-04-12T23:11:54.894Z,92629.63
2023-04-12T23:14:22.892Z,92616.78
2023-04-12T23:16:51.831Z,92624.00
2023-04-12T23:19:19.148Z,92616.37
2023-04-12T23:21:46.517Z,92627.88
2023-04-12T23:24:16.631Z,92627.00
2023-04-12T23:26:47.425Z,92629.28
2023-04-12T23:29:15.349Z,92617.91
2023-04-12T23:31:42.759Z,92617.44
2023-04-12T23:34:10.076Z,92627.53
2023-04-12T23:36:37.743Z,92632.31
2023-04-12T23:39:08.786Z,92619.19
2023-04-12T23:41:36.336Z,92621.41
2023-04-12T23:44:04.016Z,92621.72
2023-04-12T23:46:31.472Z,92625.56
2023-04-12T23:48:58.836Z,92623.72
2023-04-12T23:51:27.409Z,92624.88
2023-04-12T23:53:54.702Z,92621.69
2023-04-12T23:56:22.172Z,92623.25
2023-04-12T23:58:50.003Z,92615.44
